createdAt,value
2018-03-29T00:00:34.157Z,94236.47
2018-03-29T00:03:03.611Z,94238.59
2018-03-29T00:05:32.131Z,94255.08
2018-03-29T00:08:00.634Z,94247.31
2018-03-29T00:10:29.169Z,94253.45
2018-03-29T00:12:57.681Z,94264.95
2018-03-29T00:15:27.183Z,94263.13
2018-03-29T00:17:57.771Z,94257.22
2018-03-29T00:20:27.216Z,94264.97
2018-03-29T00:22:55.754Z,94274.66
2018-03-29T00:25:24.306Z,94271.04
2018-03-29T00:28:03.817Z,94264.50
2018-03-29T00:30:32.339Z,94272.67
2018-03-29T00:33:00.877Z,94269.14
2018-03-29T00:35:30.497Z,94277.67
2018-03-29T00:38:13.561Z,94278.07
2018-03-29T00:40:42.077Z,94290.06
2018-03-29T00:43:11.510Z,94283.89
2018-03-29T00:45:40.086Z,94285.18
2018-03-29T00:48:30.940Z,94286.19
2018-03-29T00:51:10.259Z,94296.65
2018-03-29T00:53:44.732Z,94304.89
2018-03-29T00:56:14.137Z,94311.95
2018-03-29T00:58:42.791Z,94317.59
2018-03-29T01:01:11.297Z,94317.37
2018-03-29T01:03:39.807Z,94320.39
2018-03-29T01:06:08.330Z,94319.54
2018-03-29T01:08:36.854Z,94340.23
2018-03-29T01:11:05.509Z,94334.10
2018-03-29T01:13:33.990Z,94323.50
2018-03-29T01:16:02.507Z,94338.05
2018-03-29T01:18:31.028Z,94330.37
2018-03-29T01:21:08.327Z,94338.91
2018-03-29T01:23:37.765Z,94347.52
2018-03-29T01:26:06.273Z,94355.09
2018-03-29T01:28:34.796Z,94354.73
2018-03-29T01:31:10.270Z,94354.38
2018-03-29T01:33:40.998Z,94368.11
2018-03-29T01:36:14.889Z,94363.55
2018-03-29T01:38:43.413Z,94367.65
2018-03-29T01:41:25.310Z,94375.30
2018-03-29T01:44:05.566Z,94381.20
2018-03-29T01:46:34.078Z,94387.85
2018-03-29T01:49:11.078Z,94391.58
2018-03-29T01:51:40.576Z,94423.13
2018-03-29T01:54:30.343Z,94392.83
2018-03-29T01:57:07.577Z,94415.23
2018-03-29T01:59:36.122Z,94400.12
2018-03-29T02:02:29.878Z,94415.73
2018-03-29T02:05:12.670Z,94421.81
2018-03-29T02:07:41.209Z,94419.92
2018-03-29T02:10:09.710Z,94429.71
2018-03-29T02:12:38.266Z,94429.34
2018-03-29T02:15:06.818Z,94422.91
2018-03-29T02:17:35.341Z,94427.90
2018-03-29T02:20:03.841Z,94429.92
2018-03-29T02:22:36.454Z,94431.00
2018-03-29T02:25:04.983Z,94435.47
2018-03-29T02:27:35.414Z,94437.44
2018-03-29T02:30:03.923Z,94439.63
2018-03-29T02:32:51.243Z,94442.14
2018-03-29T02:35:37.233Z,94439.74
2018-03-29T02:38:05.872Z,94445.91
2018-03-29T02:40:36.637Z,94450.67
2018-03-29T02:43:05.167Z,94444.98
2018-03-29T02:45:46.404Z,94448.20
2018-03-29T02:48:16.948Z,94451.84
2018-03-29T02:50:51.340Z,94459.72
2018-03-29T02:53:20.758Z,94465.47
2018-03-29T02:55:51.237Z,94452.36
2018-03-29T02:58:37.293Z,94454.90
2018-03-29T03:01:05.802Z,94458.50
2018-03-29T03:03:50.777Z,94469.38
2018-03-29T03:06:19.306Z,94461.14
2018-03-29T03:08:53.486Z,94456.86
2018-03-29T03:11:50.858Z,94468.13
2018-03-29T03:14:19.384Z,94464.97
2018-03-29T03:16:49.850Z,94466.87
2018-03-29T03:19:25.923Z,94480.25
2018-03-29T03:21:54.442Z,94485.80
2018-03-29T03:24:22.995Z,94482.77
2018-03-29T03:26:51.485Z,94479.37
2018-03-29T03:29:20.011Z,94490.97
2018-03-29T03:31:48.534Z,94492.44
2018-03-29T03:34:17.046Z,94506.56
2018-03-29T03:36:50.959Z,94509.88
2018-03-29T03:39:37.354Z,94512.22
2018-03-29T03:42:05.886Z,94517.73
2018-03-29T03:44:51.921Z,94523.53
2018-03-29T03:47:30.176Z,94522.05
2018-03-29T03:49:58.757Z,94523.30
2018-03-29T03:52:27.269Z,94525.16
2018-03-29T03:54:55.786Z,94526.09
2018-03-29T03:57:24.298Z,94522.97
2018-03-29T03:59:52.991Z,94519.38
2018-03-29T04:02:21.631Z,94538.05
2018-03-29T04:04:50.982Z,94533.20
2018-03-29T04:07:23.253Z,94531.20
2018-03-29T04:09:51.785Z,94534.73
2018-03-29T04:12:20.397Z,94532.36
2018-03-29T04:14:48.915Z,94535.91
2018-03-29T04:17:48.592Z,94546.36
2018-03-29T04:20:20.881Z,94537.13
2018-03-29T04:22:49.535Z,94535.66
2018-03-29T04:25:36.971Z,94543.48
2018-03-29T04:28:05.486Z,94550.76
2018-03-29T04:30:37.743Z,94550.27
2018-03-29T04:33:06.393Z,94547.73
2018-03-29T04:35:58.072Z,94546.28
2018-03-29T04:38:47.623Z,94553.83
2018-03-29T04:41:21.478Z,94552.22
2018-03-29T04:43:50.007Z,94555.11
2018-03-29T04:46:26.958Z,94552.68
2018-03-29T04:48:55.502Z,94554.37
2018-03-29T04:51:24.010Z,94561.02
2018-03-29T04:53:52.888Z,94574.58
2018-03-29T04:56:48.333Z,94571.89
2018-03-29T04:59:17.016Z,94576.44
2018-03-29T05:01:45.571Z,94574.85
2018-03-29T05:04:48.798Z,94576.09
2018-03-29T05:07:25.425Z,94575.02
2018-03-29T05:09:54.144Z,94575.25
2018-03-29T05:12:25.659Z,94579.48
2018-03-29T05:14:54.177Z,94588.77
2018-03-29T05:17:45.079Z,94584.47
2018-03-29T05:20:14.118Z,94586.39
2018-03-29T05:22:43.554Z,94593.98
2018-03-29T05:25:37.326Z,94594.03
2018-03-29T05:28:23.838Z,94598.48
2018-03-29T05:30:52.535Z,94602.70
2018-03-29T05:33:21.025Z,94607.59
2018-03-29T05:35:49.538Z,94611.59
2018-03-29T05:38:18.153Z,94603.70
2018-03-29T05:40:46.744Z,94605.92
2018-03-29T05:43:15.215Z,94611.56
2018-03-29T05:45:45.634Z,94616.31
2018-03-29T05:48:15.056Z,94611.18
2018-03-29T05:50:45.468Z,94610.70
2018-03-29T05:53:31.086Z,94611.72
2018-03-29T05:55:59.577Z,94616.93
2018-03-29T05:58:38.179Z,94616.09
2018-03-29T06:01:10.830Z,94616.81
2018-03-29T06:04:02.749Z,94620.41
2018-03-29T06:06:56.277Z,94615.69
2018-03-29T06:09:24.777Z,94614.39
2018-03-29T06:12:10.012Z,94621.10
2018-03-29T06:14:47.118Z,94620.89
2018-03-29T06:17:21.430Z,94625.40
2018-03-29T06:19:50.019Z,94630.77
2018-03-29T06:22:18.538Z,94622.06
2018-03-29T06:24:48.492Z,94632.66
2018-03-29T06:27:17.146Z,94628.02
2018-03-29T06:29:45.890Z,94631.88
2018-03-29T06:32:16.504Z,94634.42
2018-03-29T06:34:45.010Z,94642.69
2018-03-29T06:37:14.118Z,94646.94
2018-03-29T06:39:42.661Z,94646.28
2018-03-29T06:42:18.984Z,94645.23
2018-03-29T06:44:47.526Z,94650.76
2018-03-29T06:47:22.231Z,94651.25
2018-03-29T06:49:50.759Z,94658.50
2018-03-29T06:52:36.121Z,94646.52
2018-03-29T06:55:05.164Z,94652.87
2018-03-29T06:57:33.680Z,94652.95
2018-03-29T07:00:03.331Z,94660.05
2018-03-29T07:02:41.128Z,94662.62
2018-03-29T07:05:22.950Z,94675.02
2018-03-29T07:07:52.380Z,94674.73
2018-03-29T07:10:42.790Z,94674.64
2018-03-29T07:13:12.421Z,94672.33
2018-03-29T07:15:41.839Z,94677.27
2018-03-29T07:18:21.213Z,94684.17
2018-03-29T07:20:49.721Z,94679.89
2018-03-29T07:23:32.666Z,94681.78
2018-03-29T07:26:03.463Z,94680.38
2018-03-29T07:28:41.635Z,94684.66
2018-03-29T07:31:12.381Z,94682.12
2018-03-29T07:33:40.890Z,94693.38
2018-03-29T07:36:20.589Z,94701.14
2018-03-29T07:38:49.329Z,94701.12
2018-03-29T07:41:17.854Z,94703.64
2018-03-29T07:43:47.318Z,94708.42
2018-03-29T07:46:15.824Z,94704.34
2018-03-29T07:48:46.166Z,94705.59
2018-03-29T07:51:19.032Z,94707.02
2018-03-29T07:53:47.546Z,94703.22
2018-03-29T07:56:16.066Z,94699.03
2018-03-29T07:58:44.603Z,94701.22
2018-03-29T08:01:40.874Z,94709.94
2018-03-29T08:04:13.105Z,94708.97
2018-03-29T08:06:41.626Z,94708.99
2018-03-29T08:09:13.816Z,94708.44
2018-03-29T08:11:42.826Z,94719.31
2018-03-29T08:14:11.347Z,94722.36
2018-03-29T08:16:41.767Z,94721.02
2018-03-29T08:19:10.719Z,94720.61
2018-03-29T08:21:41.227Z,94722.84
2018-03-29T08:24:26.045Z,94715.97
2018-03-29T08:26:55.662Z,94713.31
2018-03-29T08:29:24.177Z,94718.89
2018-03-29T08:31:54.682Z,94725.70
2018-03-29T08:34:26.621Z,94719.72
2018-03-29T08:37:16.795Z,94719.30
2018-03-29T08:39:46.010Z,94719.23
2018-03-29T08:42:30.391Z,94719.13
2018-03-29T08:45:03.417Z,94711.70
2018-03-29T08:47:31.934Z,94715.03
2018-03-29T08:50:08.093Z,94712.20
2018-03-29T08:52:36.642Z,94709.52
2018-03-29T08:55:19.234Z,94712.30
2018-03-29T08:57:47.748Z,94710.09
2018-03-29T09:00:29.737Z,94706.31
2018-03-29T09:02:59.285Z,94706.51
2018-03-29T09:05:31.122Z,94707.87
2018-03-29T09:07:59.617Z,94710.48
2018-03-29T09:10:31.713Z,94706.64
2018-03-29T09:13:05.855Z,94706.70
2018-03-29T09:15:34.382Z,94705.38
2018-03-29T09:18:15.686Z,94709.96
2018-03-29T09:20:45.042Z,94709.03
2018-03-29T09:23:22.318Z,94715.80
2018-03-29T09:25:57.926Z,94723.92
2018-03-29T09:28:29.697Z,94721.44
2018-03-29T09:31:18.228Z,94726.61
2018-03-29T09:33:47.150Z,94727.94
2018-03-29T09:36:15.729Z,94726.39
2018-03-29T09:38:45.076Z,94729.70
2018-03-29T09:41:20.978Z,94735.65
2018-03-29T09:43:52.611Z,94733.22
2018-03-29T09:46:21.162Z,94730.09
2018-03-29T09:48:59.227Z,94722.38
2018-03-29T09:51:27.730Z,94717.83
2018-03-29T09:54:10.919Z,94715.34
2018-03-29T09:56:39.450Z,94713.38
2018-03-29T09:59:11.584Z,94707.80
2018-03-29T10:01:44.458Z,94696.86
2018-03-29T10:04:30.132Z,94697.02
2018-03-29T10:07:34.710Z,94693.59
2018-03-29T10:10:10.207Z,94690.45
2018-03-29T10:12:39.002Z,94688.42
2018-03-29T10:15:29.409Z,94689.84
2018-03-29T10:17:57.938Z,94687.75
2018-03-29T10:20:30.654Z,94691.78
2018-03-29T10:23:01.115Z,94689.22
2018-03-29T10:25:30.755Z,94689.66
2018-03-29T10:28:04.840Z,94690.83
2018-03-29T10:30:33.370Z,94686.38
2018-03-29T10:33:02.534Z,94684.40
2018-03-29T10:35:31.058Z,94683.70
2018-03-29T10:37:59.614Z,94684.79
2018-03-29T10:40:30.056Z,94680.09
2018-03-29T10:42:58.563Z,94667.33
2018-03-29T10:45:27.092Z,94661.44
2018-03-29T10:47:59.629Z,94655.33
2018-03-29T10:50:42.566Z,94648.41
2018-03-29T10:53:13.207Z,94644.66
2018-03-29T10:55:53.180Z,94632.55
2018-03-29T10:58:27.903Z,94635.66
2018-03-29T11:00:57.362Z,94630.05
2018-03-29T11:03:26.506Z,94622.35
2018-03-29T11:05:55.023Z,94619.58
2018-03-29T11:08:33.456Z,94621.45
2018-03-29T11:11:01.996Z,94620.48
2018-03-29T11:13:33.757Z,94617.97
2018-03-29T11:16:02.297Z,94611.47
2018-03-29T11:18:53.148Z,94616.75
2018-03-29T11:21:40.838Z,94619.88
2018-03-29T11:24:09.589Z,94622.30
2018-03-29T11:26:52.126Z,94616.81
2018-03-29T11:29:24.391Z,94605.55
2018-03-29T11:31:53.833Z,94606.52
2018-03-29T11:34:32.739Z,94606.34
2018-03-29T11:37:01.750Z,94603.23
2018-03-29T11:39:30.267Z,94605.64
2018-03-29T11:41:58.828Z,94605.13
2018-03-29T11:44:29.231Z,94602.64
2018-03-29T11:46:58.137Z,94602.14
2018-03-29T11:49:38.236Z,94597.97
2018-03-29T11:52:06.767Z,94597.53
2018-03-29T11:54:37.208Z,94597.56
2018-03-29T11:57:05.733Z,94585.66
2018-03-29T11:59:52.461Z,94583.03
2018-03-29T12:02:41.826Z,94587.66
2018-03-29T12:05:10.912Z,94581.67
2018-03-29T12:07:47.931Z,94577.55
2018-03-29T12:10:37.380Z,94578.91
2018-03-29T12:13:05.915Z,94579.22
2018-03-29T12:15:34.471Z,94572.03
2018-03-29T12:18:03.631Z,94578.11
2018-03-29T12:20:32.154Z,94578.25
2018-03-29T12:23:01.049Z,94575.90
2018-03-29T12:25:53.348Z,94569.21
2018-03-29T12:28:49.713Z,94566.97
2018-03-29T12:31:18.252Z,94559.61
2018-03-29T12:34:13.363Z,94560.47
2018-03-29T12:36:42.951Z,94558.92
2018-03-29T12:39:12.470Z,94550.73
2018-03-29T12:42:01.950Z,94557.95
2018-03-29T12:44:30.642Z,94560.15
2018-03-29T12:47:02.477Z,94564.33
2018-03-29T12:49:31.006Z,94559.62
2018-03-29T12:51:59.582Z,94555.99
2018-03-29T12:54:39.894Z,94562.03
2018-03-29T12:57:25.199Z,94562.23
2018-03-29T12:59:57.569Z,94562.92
2018-03-29T13:02:26.092Z,94563.82
2018-03-29T13:04:57.753Z,94552.61
2018-03-29T13:07:26.318Z,94547.36
2018-03-29T13:10:14.335Z,94549.90
2018-03-29T13:12:44.782Z,94547.59
2018-03-29T13:15:14.016Z,94546.20
2018-03-29T13:18:00.830Z,94552.09
2018-03-29T13:20:29.438Z,94544.55
2018-03-29T13:22:57.949Z,94543.47
2018-03-29T13:25:26.495Z,94540.29
2018-03-29T13:27:57.885Z,94537.50
2018-03-29T13:30:26.419Z,94533.09
2018-03-29T13:32:56.443Z,94535.72
2018-03-29T13:35:24.966Z,94539.55
2018-03-29T13:37:57.303Z,94535.30
2018-03-29T13:40:25.834Z,94530.31
2018-03-29T13:42:57.861Z,94527.62
2018-03-29T13:45:27.253Z,94524.16
2018-03-29T13:48:05.183Z,94518.81
2018-03-29T13:50:44.004Z,94516.17
2018-03-29T13:53:16.409Z,94518.02
2018-03-29T13:56:10.795Z,94518.20
2018-03-29T13:59:09.206Z,94518.78
2018-03-29T14:01:38.942Z,94511.31
2018-03-29T14:04:14.018Z,94511.18
2018-03-29T14:06:42.520Z,94504.57
2018-03-29T14:09:13.005Z,94506.72
2018-03-29T14:11:41.855Z,94504.58
2018-03-29T14:14:18.206Z,94507.94
2018-03-29T14:16:58.069Z,94517.17
2018-03-29T14:19:26.594Z,94515.33
2018-03-29T14:22:13.656Z,94514.19
2018-03-29T14:24:59.226Z,94513.27
2018-03-29T14:27:28.675Z,94516.73
2018-03-29T14:29:57.288Z,94518.84
2018-03-29T14:32:35.834Z,94527.42
2018-03-29T14:35:25.716Z,94528.25
2018-03-29T14:37:54.668Z,94531.95
2018-03-29T14:40:35.986Z,94541.84
2018-03-29T14:43:18.925Z,94533.73
2018-03-29T14:45:47.456Z,94535.79
2018-03-29T14:48:23.429Z,94531.86
2018-03-29T14:50:51.951Z,94535.78
2018-03-29T14:53:35.038Z,94543.09
2018-03-29T14:56:04.483Z,94535.05
2018-03-29T14:58:34.922Z,94537.86
2018-03-29T15:01:08.518Z,94531.43
2018-03-29T15:03:36.985Z,94531.95
2018-03-29T15:06:29.556Z,94533.28
2018-03-29T15:08:58.085Z,94545.53
2018-03-29T15:11:35.901Z,94544.61
2018-03-29T15:14:22.588Z,94547.12
2018-03-29T15:16:51.494Z,94547.66
2018-03-29T15:19:20.014Z,94548.67
2018-03-29T15:21:48.780Z,94550.72
2018-03-29T15:24:30.319Z,94555.12
2018-03-29T15:27:02.580Z,94560.59
2018-03-29T15:29:35.537Z,94564.46
2018-03-29T15:32:15.129Z,94556.84
2018-03-29T15:34:43.699Z,94551.61
2018-03-29T15:37:16.073Z,94546.92
2018-03-29T15:39:44.526Z,94548.53
2018-03-29T15:42:13.264Z,94543.60
2018-03-29T15:44:41.824Z,94534.64
2018-03-29T15:47:10.306Z,94538.08
2018-03-29T15:49:38.820Z,94535.95
2018-03-29T15:52:07.335Z,94538.30
2018-03-29T15:54:35.851Z,94533.31
2018-03-29T15:57:16.474Z,94537.00
2018-03-29T15:59:45.310Z,94539.25
2018-03-29T16:02:24.755Z,94550.64
2018-03-29T16:04:53.636Z,94552.31
2018-03-29T16:07:22.165Z,94556.45
2018-03-29T16:09:51.211Z,94551.78
2018-03-29T16:12:19.727Z,94547.67
2018-03-29T16:14:48.244Z,94568.05
2018-03-29T16:17:16.750Z,94566.09
2018-03-29T16:19:46.178Z,94568.22
2018-03-29T16:22:16.143Z,94565.14
2018-03-29T16:24:44.660Z,94567.11
2018-03-29T16:27:17.081Z,94576.23
2018-03-29T16:29:45.597Z,94571.99
2018-03-29T16:32:14.128Z,94567.22
2018-03-29T16:34:43.134Z,94575.13
2018-03-29T16:37:25.822Z,94573.23
2018-03-29T16:39:54.344Z,94573.25
2018-03-29T16:42:32.669Z,94567.37
2018-03-29T16:45:02.112Z,94567.80
2018-03-29T16:47:38.337Z,94568.12
2018-03-29T16:50:08.029Z,94568.48
2018-03-29T16:52:48.098Z,94562.33
2018-03-29T16:55:17.476Z,94573.99
2018-03-29T16:57:48.269Z,94586.86
2018-03-29T17:00:18.674Z,94579.65
2018-03-29T17:02:56.155Z,94581.72
2018-03-29T17:05:28.022Z,94582.42
2018-03-29T17:07:56.539Z,94591.99
2018-03-29T17:10:37.469Z,94612.66
2018-03-29T17:13:07.023Z,94620.86
2018-03-29T17:15:43.994Z,94633.45
2018-03-29T17:18:12.513Z,94639.58
2018-03-29T17:20:49.361Z,94641.42
2018-03-29T17:23:38.542Z,94639.95
2018-03-29T17:26:07.274Z,94637.32
2018-03-29T17:28:40.543Z,94632.12
2018-03-29T17:31:09.253Z,94634.58
2018-03-29T17:33:42.444Z,94624.67
2018-03-29T17:36:22.533Z,94630.75
2018-03-29T17:41:38.010Z,94635.02
2018-03-29T17:44:06.510Z,94633.34
2018-03-29T17:46:35.053Z,94642.25
2018-03-29T17:49:04.453Z,94640.25
2018-03-29T17:51:50.064Z,94648.95
2018-03-29T17:54:43.395Z,94659.94
2018-03-29T17:57:11.919Z,94672.50
2018-03-29T17:59:55.667Z,94669.84
2018-03-29T18:02:46.500Z,94676.95
2018-03-29T18:05:15.001Z,94684.03
2018-03-29T18:07:43.794Z,94684.33
2018-03-29T18:10:12.328Z,94686.66
2018-03-29T18:12:48.081Z,94699.92
2018-03-29T18:15:21.997Z,94718.74
2018-03-29T18:17:57.673Z,94712.82
2018-03-29T18:20:31.638Z,94712.45
2018-03-29T18:23:00.153Z,94710.10
2018-03-29T18:25:28.677Z,94714.16
2018-03-29T18:28:04.665Z,94719.67
2018-03-29T18:30:33.179Z,94724.42
2018-03-29T18:33:12.571Z,94725.38
2018-03-29T18:35:58.025Z,94724.13
2018-03-29T18:38:26.546Z,94725.50
2018-03-29T18:40:55.142Z,94725.94
2018-03-29T18:43:23.686Z,94727.04
2018-03-29T18:45:53.081Z,94730.44
2018-03-29T18:48:21.581Z,94732.63
2018-03-29T18:51:00.878Z,94730.63
2018-03-29T18:53:29.382Z,94728.41
2018-03-29T18:55:57.894Z,94735.54
2018-03-29T18:58:26.542Z,94743.42
2018-03-29T19:01:03.099Z,94747.95
2018-03-29T19:03:31.725Z,94749.98
2018-03-29T19:06:17.292Z,94750.02
2018-03-29T19:08:45.805Z,94751.59
2018-03-29T19:11:19.857Z,94751.44
2018-03-29T19:14:00.867Z,94757.55
2018-03-29T19:16:44.672Z,94760.82
2018-03-29T19:19:13.189Z,94762.61
2018-03-29T19:21:57.783Z,94764.86
2018-03-29T19:24:41.526Z,94761.08
2018-03-29T19:27:10.047Z,94760.47
2018-03-29T19:29:46.497Z,94757.05
2018-03-29T19:32:15.047Z,94761.45
2018-03-29T19:35:00.658Z,94760.71
2018-03-29T19:37:32.559Z,94762.16
2018-03-29T19:40:01.864Z,94750.45
2018-03-29T19:42:34.291Z,94756.77
2018-03-29T19:45:02.777Z,94757.05
2018-03-29T19:47:38.906Z,94759.63
2018-03-29T19:50:07.428Z,94763.59
2018-03-29T19:52:45.330Z,94759.27
2018-03-29T19:55:13.854Z,94768.77
2018-03-29T19:57:55.605Z,94773.90
2018-03-29T20:00:25.234Z,94772.95
2018-03-29T20:03:01.358Z,94763.09
2018-03-29T20:05:29.977Z,94763.83
2018-03-29T20:08:01.846Z,94758.97
2018-03-29T20:10:40.160Z,94755.55
2018-03-29T20:13:08.646Z,94753.83
2018-03-29T20:15:49.447Z,94760.38
2018-03-29T20:18:18.576Z,94765.20
2018-03-29T20:20:57.597Z,94764.23
2018-03-29T20:23:30.501Z,94767.61
2018-03-29T20:26:00.942Z,94765.50
2018-03-29T20:28:44.941Z,94764.86
2018-03-29T20:31:13.579Z,94766.66
2018-03-29T20:34:04.398Z,94756.91
2018-03-29T20:36:40.829Z,94748.23
2018-03-29T20:39:09.363Z,94751.66
2018-03-29T20:41:41.316Z,94755.61
2018-03-29T20:44:10.044Z,94755.18
2018-03-29T20:46:38.577Z,94753.12
2018-03-29T20:49:07.095Z,94749.47
2018-03-29T20:51:35.649Z,94755.78
2018-03-29T20:54:04.181Z,94747.37
2018-03-29T20:56:36.576Z,94746.30
2018-03-29T20:59:05.136Z,94745.88
2018-03-29T21:01:35.563Z,94740.76
2018-03-29T21:04:04.149Z,94747.25
2018-03-29T21:06:33.391Z,94746.69
2018-03-29T21:09:01.936Z,94748.87
2018-03-29T21:11:48.050Z,94750.16
2018-03-29T21:14:16.545Z,94745.34
2018-03-29T21:16:50.749Z,94746.50
2018-03-29T21:19:19.262Z,94745.34
2018-03-29T21:22:02.154Z,94744.92
2018-03-29T21:24:38.267Z,94744.67
2018-03-29T21:27:06.782Z,94747.30
2018-03-29T21:29:48.072Z,94743.62
2018-03-29T21:32:16.559Z,94749.27
2018-03-29T21:34:52.893Z,94747.71
2018-03-29T21:37:31.165Z,94744.79
2018-03-29T21:39:59.864Z,94746.58
2018-03-29T21:42:35.365Z,94753.39
2018-03-29T21:45:03.959Z,94752.76
2018-03-29T21:47:32.536Z,94754.04
2018-03-29T21:50:01.905Z,94754.59
2018-03-29T21:52:34.956Z,94753.19
2018-03-29T21:55:07.614Z,94751.23
2018-03-29T21:57:38.474Z,94750.19
2018-03-29T22:00:07.837Z,94749.65
2018-03-29T22:02:44.903Z,94745.12
2018-03-29T22:05:13.445Z,94746.09
2018-03-29T22:07:55.322Z,94742.41
2018-03-29T22:10:40.989Z,94741.43
2018-03-29T22:13:09.576Z,94734.16
2018-03-29T22:15:51.632Z,94732.34
2018-03-29T22:18:45.266Z,94732.56
2018-03-29T22:21:13.774Z,94729.95
2018-03-29T22:23:48.394Z,94729.47
2018-03-29T22:26:16.906Z,94729.84
2018-03-29T22:28:45.480Z,94732.63
2018-03-29T22:31:14.183Z,94731.02
2018-03-29T22:33:46.027Z,94730.69
2018-03-29T22:36:14.537Z,94740.13
2018-03-29T22:39:01.430Z,94741.34
2018-03-29T22:41:34.511Z,94743.40
2018-03-29T22:44:03.042Z,94749.80
2018-03-29T22:47:00.718Z,94749.27
2018-03-29T22:49:33.022Z,94752.86
2018-03-29T22:52:01.551Z,94754.19
2018-03-29T22:54:42.760Z,94749.30
2018-03-29T22:57:13.162Z,94744.38
2018-03-29T23:00:01.134Z,94740.30
2018-03-29T23:02:35.004Z,94737.45
2018-03-29T23:05:03.685Z,94735.10
2018-03-29T23:07:32.219Z,94733.36
2018-03-29T23:10:01.662Z,94731.93
2018-03-29T23:12:50.948Z,94730.64
2018-03-29T23:15:19.510Z,94731.61
2018-03-29T23:18:01.281Z,94733.84
2018-03-29T23:21:00.614Z,94739.99
2018-03-29T23:23:38.230Z,94747.78
2018-03-29T23:26:06.702Z,94748.98
2018-03-29T23:28:40.553Z,94747.98
2018-03-29T23:31:09.077Z,94752.98
2018-03-29T23:33:43.452Z,94755.78
2018-03-29T23:36:11.978Z,94758.73
2018-03-29T23:38:47.929Z,94763.28
2018-03-29T23:41:17.410Z,94762.15
2018-03-29T23:43:45.994Z,94763.36
2018-03-29T23:46:14.762Z,94764.34
2018-03-29T23:48:43.296Z,94768.07
2018-03-29T23:51:11.846Z,94768.02
2018-03-29T23:53:42.301Z,94767.42
2018-03-29T23:56:10.892Z,94761.09
2018-03-29T23:58:39.706Z,94762.59
